Dillingham, AK (99576)

3:21 PM AKDT on July 27, 2016 (GMT -0800)
Dillingham | | Change Station

Elev 95 ft 59.04 °N, 158.51 °W | Updated 25 minutes ago

Overcast
Overcast
65 °F
Feels Like 65 °F
N
6
Wind Variable Wind from Variable

Today
High -- | Low -- °F
--% Chance of Precip.
Yesterday
High -- | Low -- °F
Precip. -- in
Pressure 29.83 in
Visibility 10.0 miles
Clouds Few 2700 ft
Mostly Cloudy 5500 ft
Overcast 7500 ft
Dew Point 55 °F
Humidity 70%
Rainfall 0.04 in
Snow Depth Not available.
6:11 AM 11:07 PM
Last Quarter, 38% visible
METAR PADL 272256Z VRB05KT 10SM FEW027 BKN055 OVC075 18/13 A2981 RMK AO2 SLP101 P0001 T01830128
Pressure 29.83 in
Visibility 10.0 miles
Clouds Few 2700 ft
Mostly Cloudy 5500 ft
Overcast 7500 ft
Dew Point 55 °F
Humidity 70%
Rainfall 0.04 in
Snow Depth Not available.
6:11 AM 11:07 PM
Last Quarter, 38% visible
METAR PADL 272256Z VRB05KT 10SM FEW027 BKN055 OVC075 18/13 A2981 RMK AO2 SLP101 P0001 T01830128

10-Day Weather Forecast

Almanac

Astronomy

Jul. 27, 2016 Rise Set
Actual Time
Civil Twilight
Nautical Twilight
Astronomical Twilight
Moon
Length of Visible Light
Length of Day
Tomorrow will be .
, % of the Moon is Illuminated

Today's Extremes

State Highs State Lows

Community

WunderPhotos

Upload Photos

1,927,954 photos uploaded!

WunderBlog® & News

Nearby

Air Quality

  Air Quality AQ Index Pollutant
Not available.

Snow Depth

Station Depth Elevation

Earthquake Activity

City Distance Mag. Time & Date
Minimum magnitude displayed is 2.5.

Coastal Water Temperatures

Place Temperature

Stations

Nearby Weather Stations

Station Location Temp. Windchill Dew Point Humidity Wind Precip. Elev Updated Type
                   

Watches & Warnings

There are currently no watches in effect.